aviador You're here:

KQD3 Decoded Metar

in
Report Time2018-01-18 12:56:00
UTC Time2018-01-18 14:01:30
Flight Rules vfr VFR
Wind100° at 10 Gusting to 20 kt
W.Rank100° ranks 9
Current wind is above 100° avg. (5.3)
Visibility9999 m
Phenomena:N/A
Clouds:N/A
Expected CloudBase > 4,400 ft AGL from Temp-Dew spread
CeilingNone
Temp27°C
Dew Point16°C (51% RH)
Heat Index27.5°C
AAT25.4°C
QNH1014 hPa
Raw Report
METAR KQD3 181256Z AUTO 10010G20KT 9999 CLR 27/16 A2994 RMK AO2 SLP104
WND DATA ESTMD T02670160=

Extra information for KQD3:More info

Social comments